createdAt,value
2018-09-12T00:00:03.317Z,100846.90
2018-09-12T00:01:09.537Z,100850.29
2018-09-12T00:02:15.765Z,100848.27
2018-09-12T00:03:22.038Z,100848.77
2018-09-12T00:04:28.312Z,100847.81
2018-09-12T00:05:34.569Z,100853.78
2018-09-12T00:06:40.785Z,100849.46
2018-09-12T00:07:47.041Z,100847.27
2018-09-12T00:08:53.325Z,100850.64
2018-09-12T00:09:59.548Z,100841.44
2018-09-12T00:11:06.763Z,100847.18
2018-09-12T00:12:13.039Z,100843.94
2018-09-12T00:13:19.267Z,100843.50
2018-09-12T00:14:25.514Z,100847.78
2018-09-12T00:15:31.780Z,100849.44
2018-09-12T00:16:38.044Z,100847.68
2018-09-12T00:17:44.277Z,100853.61
2018-09-12T00:18:50.538Z,100852.57
2018-09-12T00:19:56.783Z,100850.37
2018-09-12T00:21:03.095Z,100854.23
2018-09-12T00:22:09.586Z,100844.17
2018-09-12T00:23:15.881Z,100847.83
2018-09-12T00:24:22.111Z,100847.20
2018-09-12T00:25:28.349Z,100840.63
2018-09-12T00:26:34.637Z,100844.50
2018-09-12T00:27:40.908Z,100844.42
2018-09-12T00:28:47.161Z,100848.28
2018-09-12T00:29:53.408Z,100849.03
2018-09-12T00:30:59.311Z,100847.66
2018-09-12T00:32:05.573Z,100843.59
2018-09-12T00:33:11.813Z,100849.50
2018-09-12T00:34:18.044Z,100845.54
2018-09-12T00:35:24.345Z,100844.42
2018-09-12T00:36:30.594Z,100848.38
2018-09-12T00:37:36.871Z,100849.58
2018-09-12T00:38:43.117Z,100853.28
2018-09-12T00:39:49.370Z,100855.36
2018-09-12T00:40:55.615Z,100847.83
2018-09-12T00:42:01.888Z,100844.73
2018-09-12T00:43:07.796Z,100841.09
2018-09-12T00:44:14.042Z,100839.25
2018-09-12T00:45:20.284Z,100841.51
2018-09-12T00:46:26.529Z,100837.72
2018-09-12T00:47:32.796Z,100838.45
2018-09-12T00:48:39.071Z,100839.11
2018-09-12T00:49:46.249Z,100846.80
2018-09-12T00:50:52.522Z,100834.34
2018-09-12T00:51:58.798Z,100835.40
2018-09-12T00:53:05.091Z,100834.56
2018-09-12T00:54:11.356Z,100840.06
2018-09-12T00:55:17.592Z,100838.14
2018-09-12T00:56:23.813Z,100839.83
2018-09-12T00:57:30.045Z,100835.94
2018-09-12T00:58:36.330Z,100835.16
2018-09-12T00:59:42.561Z,100832.78
2018-09-12T01:00:48.795Z,100834.34
2018-09-12T01:01:55.028Z,100833.22
2018-09-12T01:03:01.286Z,100830.02
2018-09-12T01:04:07.524Z,100828.73
2018-09-12T01:05:13.793Z,100826.94
2018-09-12T01:06:20.049Z,100826.86
2018-09-12T01:07:26.281Z,100822.59
2018-09-12T01:08:32.582Z,100831.27
2018-09-12T01:09:38.568Z,100829.42
2018-09-12T01:10:44.533Z,100834.62
2018-09-12T01:11:50.757Z,100826.35
2018-09-12T01:12:57.005Z,100826.20
2018-09-12T01:14:03.290Z,100826.19
2018-09-12T01:15:09.558Z,100828.80
2018-09-12T01:16:15.834Z,100827.24
2018-09-12T01:17:22.086Z,100823.35
2018-09-12T01:18:28.696Z,100823.66
2018-09-12T01:19:34.955Z,100825.54
2018-09-12T01:20:41.210Z,100825.11
2018-09-12T01:21:47.439Z,100825.97
2018-09-12T01:22:53.724Z,100823.90
2018-09-12T01:24:00.014Z,100814.16
2018-09-12T01:25:06.236Z,100819.21
2018-09-12T01:26:12.472Z,100815.86
2018-09-12T01:27:18.697Z,100814.39
2018-09-12T01:28:24.968Z,100810.56
2018-09-12T01:29:31.247Z,100809.95
2018-09-12T01:30:37.489Z,100811.08
2018-09-12T01:31:43.699Z,100810.61
2018-09-12T01:32:49.933Z,100808.03
2018-09-12T01:33:56.198Z,100806.63
2018-09-12T01:35:02.476Z,100806.31
2018-09-12T01:36:08.772Z,100805.80
2018-09-12T01:37:15.693Z,100808.33
2018-09-12T01:38:21.673Z,100807.56
2018-09-12T01:39:28.095Z,100806.94
2018-09-12T01:40:34.336Z,100808.95
2018-09-12T01:41:40.596Z,100807.52
2018-09-12T01:42:46.571Z,100807.09
2018-09-12T01:43:52.798Z,100806.73
2018-09-12T01:44:59.084Z,100807.28
2018-09-12T01:46:04.359Z,100806.37
2018-09-12T01:47:10.591Z,100810.22
2018-09-12T01:48:16.877Z,100809.67
2018-09-12T01:49:23.170Z,100800.80
2018-09-12T01:50:29.437Z,100801.50
2018-09-12T01:51:35.665Z,100802.45
2018-09-12T01:52:41.738Z,100802.30
2018-09-12T01:53:47.996Z,100801.29
2018-09-12T01:54:54.266Z,100801.02
2018-09-12T01:56:00.532Z,100803.08
2018-09-12T01:57:06.787Z,100799.71
2018-09-12T01:58:12.421Z,100797.07
2018-09-12T01:59:18.392Z,100798.39
2018-09-12T02:00:24.425Z,100800.61
2018-09-12T02:01:30.693Z,100799.26
2018-09-12T02:02:36.943Z,100801.08
2018-09-12T02:03:43.194Z,100810.52
2018-09-12T02:04:49.421Z,100803.39
2018-09-12T02:05:55.078Z,100807.22
2018-09-12T02:07:01.344Z,100800.42
2018-09-12T02:08:07.604Z,100800.41
2018-09-12T02:09:13.840Z,100801.80
2018-09-12T02:10:21.058Z,100802.87
2018-09-12T02:11:27.270Z,100803.55
2018-09-12T02:12:33.545Z,100803.30
2018-09-12T02:13:39.851Z,100798.97
2018-09-12T02:14:46.104Z,100805.37
2018-09-12T02:15:52.402Z,100796.61
2018-09-12T02:16:58.652Z,100805.50
2018-09-12T02:18:04.924Z,100801.06
2018-09-12T02:19:11.216Z,100802.73
2018-09-12T02:20:17.475Z,100800.86
2018-09-12T02:21:23.727Z,100805.93
2018-09-12T02:22:29.993Z,100800.31
2018-09-12T02:23:36.300Z,100797.93
2018-09-12T02:24:42.310Z,100804.37
2018-09-12T02:25:48.265Z,100799.88
2018-09-12T02:26:54.285Z,100801.67
2018-09-12T02:28:00.511Z,100802.97
2018-09-12T02:29:06.788Z,100802.22
2018-09-12T02:30:12.886Z,100796.87
2018-09-12T02:31:19.135Z,100801.02
2018-09-12T02:32:25.386Z,100798.70
2018-09-12T02:33:31.445Z,100804.55
2018-09-12T02:34:37.704Z,100802.84
2018-09-12T02:35:43.753Z,100802.55
2018-09-12T02:36:49.661Z,100802.17
2018-09-12T02:37:55.917Z,100798.70
2018-09-12T02:39:02.161Z,100802.98
2018-09-12T02:40:07.710Z,100800.92
2018-09-12T02:41:14.007Z,100797.08
2018-09-12T02:42:20.269Z,100802.52
2018-09-12T02:43:26.486Z,100800.23
2018-09-12T02:44:32.707Z,100804.39
2018-09-12T02:45:39.010Z,100801.73
2018-09-12T02:46:45.245Z,100805.41
2018-09-12T02:47:51.479Z,100804.28
2018-09-12T02:48:57.752Z,100810.72
2018-09-12T02:50:03.657Z,100807.21
2018-09-12T02:51:09.929Z,100799.79
2018-09-12T02:52:16.182Z,100802.58
2018-09-12T02:53:22.449Z,100803.91
2018-09-12T02:54:28.750Z,100799.27
2018-09-12T02:55:35.063Z,100796.77
2018-09-12T02:56:41.276Z,100797.20
2018-09-12T02:57:47.524Z,100800.43
2018-09-12T02:58:53.784Z,100790.88
2018-09-12T03:00:00.011Z,100795.59
2018-09-12T03:01:05.966Z,100788.42
2018-09-12T03:02:12.210Z,100790.17
2018-09-12T03:03:22.807Z,100793.69
2018-09-12T03:04:29.025Z,100793.37
2018-09-12T03:05:34.992Z,100788.89
2018-09-12T03:06:41.259Z,100796.45
2018-09-12T03:07:47.562Z,100792.25
2018-09-12T03:08:53.981Z,100785.66
2018-09-12T03:10:00.209Z,100787.14
2018-09-12T03:11:06.327Z,100791.47
2018-09-12T03:12:12.556Z,100785.98
2018-09-12T03:13:18.814Z,100784.69
2018-09-12T03:14:25.052Z,100788.70
2018-09-12T03:15:31.010Z,100782.98
2018-09-12T03:16:37.298Z,100782.20
2018-09-12T03:17:43.277Z,100773.16
2018-09-12T03:18:49.189Z,100776.59
2018-09-12T03:19:55.474Z,100776.59
2018-09-12T03:21:01.923Z,100781.97
2018-09-12T03:22:08.279Z,100782.67
2018-09-12T03:23:15.491Z,100777.98
2018-09-12T03:24:21.539Z,100777.98
2018-09-12T03:25:27.808Z,100783.23
2018-09-12T03:26:33.877Z,100784.99
2018-09-12T03:27:39.776Z,100779.46
2018-09-12T03:28:46.022Z,100784.41
2018-09-12T03:29:52.270Z,100784.57
2018-09-12T03:30:58.502Z,100781.61
2018-09-12T03:32:04.789Z,100781.11
2018-09-12T03:33:11.038Z,100780.17
2018-09-12T03:34:17.303Z,100778.98
2018-09-12T03:35:23.543Z,100777.61
2018-09-12T03:36:29.808Z,100778.25
2018-09-12T03:37:36.044Z,100778.52
2018-09-12T03:38:42.276Z,100780.05
2018-09-12T03:39:48.581Z,100778.50
2018-09-12T03:40:54.836Z,100776.23
2018-09-12T03:42:01.140Z,100780.72
2018-09-12T03:43:07.023Z,100777.36
2018-09-12T03:44:13.263Z,100776.84
2018-09-12T03:45:19.510Z,100777.73
2018-09-12T03:46:25.805Z,100777.27
2018-09-12T03:47:32.045Z,100777.77
2018-09-12T03:48:38.377Z,100781.64
2018-09-12T03:49:44.653Z,100776.77
2018-09-12T03:50:50.863Z,100770.48
2018-09-12T03:51:57.139Z,100776.10
2018-09-12T03:53:03.460Z,100772.36
2018-09-12T03:54:09.696Z,100772.17
2018-09-12T03:55:15.974Z,100774.31
2018-09-12T03:56:22.264Z,100770.55
2018-09-12T03:57:28.522Z,100778.64
2018-09-12T03:58:34.760Z,100780.67
2018-09-12T03:59:41.033Z,100784.05
2018-09-12T04:00:47.273Z,100780.06
2018-09-12T04:01:53.636Z,100780.14
2018-09-12T04:02:59.624Z,100780.58
2018-09-12T04:04:05.518Z,100774.22
2018-09-12T04:05:11.770Z,100782.72
2018-09-12T04:06:18.008Z,100779.36
2018-09-12T04:07:24.284Z,100782.64
2018-09-12T04:08:30.501Z,100776.52
2018-09-12T04:09:36.721Z,100772.46
2018-09-12T04:10:42.984Z,100771.30
2018-09-12T04:11:49.257Z,100776.17
2018-09-12T04:12:55.515Z,100772.72
2018-09-12T04:14:01.774Z,100772.36
2018-09-12T04:15:07.338Z,100772.04
2018-09-12T04:16:13.552Z,100774.12
2018-09-12T04:17:19.872Z,100775.43
2018-09-12T04:18:26.119Z,100776.63
2018-09-12T04:19:32.381Z,100777.17
2018-09-12T04:20:38.606Z,100768.42
2018-09-12T04:21:44.935Z,100771.06
2018-09-12T04:22:51.177Z,100768.46
2018-09-12T04:23:57.456Z,100767.06
2018-09-12T04:25:03.376Z,100768.66
2018-09-12T04:26:09.450Z,100776.52
2018-09-12T04:27:15.713Z,100770.02
2018-09-12T04:28:26.261Z,100777.38
2018-09-12T04:29:32.514Z,100778.47
2018-09-12T04:30:38.817Z,100781.74
2018-09-12T04:31:45.213Z,100782.91
2018-09-12T04:32:51.438Z,100781.08
2018-09-12T04:33:57.672Z,100784.48
2018-09-12T04:35:03.933Z,100789.11
2018-09-12T04:36:10.245Z,100783.64
2018-09-12T04:37:16.550Z,100788.27
2018-09-12T04:38:22.789Z,100787.45
2018-09-12T04:39:29.095Z,100784.38
2018-09-12T04:40:35.357Z,100794.20
2018-09-12T04:41:41.630Z,100793.16
2018-09-12T04:42:47.978Z,100796.55
2018-09-12T04:43:54.115Z,100791.05
2018-09-12T04:45:00.340Z,100793.59
2018-09-12T04:46:06.621Z,100790.73
2018-09-12T04:47:12.636Z,100797.14
2018-09-12T04:48:19.173Z,100794.45
2018-09-12T04:49:25.271Z,100790.52
2018-09-12T04:50:31.609Z,100792.20
2018-09-12T04:51:37.857Z,100795.17
2018-09-12T04:52:44.097Z,100797.32
2018-09-12T04:53:50.388Z,100791.21
2018-09-12T04:54:56.698Z,100789.06
2018-09-12T04:56:02.964Z,100789.74
2018-09-12T04:57:09.197Z,100793.03
2018-09-12T04:58:15.440Z,100782.56
2018-09-12T04:59:21.663Z,100784.99
2018-09-12T05:00:27.907Z,100786.27
2018-09-12T05:01:34.186Z,100778.41
2018-09-12T05:02:40.457Z,100779.53
2018-09-12T05:03:46.680Z,100785.28
2018-09-12T05:04:52.924Z,100785.86
2018-09-12T05:05:59.175Z,100784.80
2018-09-12T05:07:05.466Z,100787.14
2018-09-12T05:08:11.746Z,100783.13
2018-09-12T05:09:18.012Z,100780.02
2018-09-12T05:10:24.276Z,100787.36
2018-09-12T05:11:30.552Z,100777.86
2018-09-12T05:12:36.814Z,100775.64
2018-09-12T05:13:43.089Z,100774.25
2018-09-12T05:14:49.337Z,100778.78
2018-09-12T05:15:55.629Z,100779.00
2018-09-12T05:17:01.835Z,100781.57
2018-09-12T05:18:08.091Z,100776.28
2018-09-12T05:19:14.307Z,100780.72
2018-09-12T05:20:20.596Z,100780.05
2018-09-12T05:21:26.980Z,100782.87
2018-09-12T05:22:33.199Z,100777.40
2018-09-12T05:23:39.501Z,100778.20
2018-09-12T05:24:45.716Z,100777.86
2018-09-12T05:25:51.976Z,100776.33
2018-09-12T05:26:58.228Z,100775.64
2018-09-12T05:28:04.499Z,100774.14
2018-09-12T05:29:10.771Z,100764.84
2018-09-12T05:30:17.025Z,100770.81
2018-09-12T05:31:23.268Z,100768.00
2018-09-12T05:32:29.568Z,100763.59
2018-09-12T05:33:35.806Z,100763.26
2018-09-12T05:34:42.042Z,100759.06
2018-09-12T05:35:48.294Z,100756.48
2018-09-12T05:36:54.592Z,100757.18
2018-09-12T05:38:00.865Z,100753.56
2018-09-12T05:39:06.188Z,100756.53
2018-09-12T05:40:12.435Z,100763.09
2018-09-12T05:41:18.755Z,100758.53
2018-09-12T05:42:25.020Z,100763.53
2018-09-12T05:43:31.261Z,100754.78
2018-09-12T05:44:37.492Z,100760.14
2018-09-12T05:45:43.739Z,100759.59
2018-09-12T05:46:49.997Z,100766.22
2018-09-12T05:47:56.255Z,100760.68
2018-09-12T05:49:02.497Z,100763.67
2018-09-12T05:50:08.842Z,100764.48
2018-09-12T05:51:15.232Z,100763.94
2018-09-12T05:52:21.601Z,100762.37
2018-09-12T05:53:27.869Z,100756.95
2018-09-12T05:54:34.096Z,100752.32
2018-09-12T05:55:40.423Z,100758.59
2018-09-12T05:56:46.656Z,100754.13
2018-09-12T05:57:52.905Z,100754.40
2018-09-12T05:58:59.158Z,100751.97
2018-09-12T06:00:04.453Z,100755.91
2018-09-12T06:01:10.714Z,100750.72
2018-09-12T06:02:16.992Z,100748.53
2018-09-12T06:03:23.607Z,100750.52
2018-09-12T06:04:29.847Z,100747.89
2018-09-12T06:05:36.109Z,100744.67
2018-09-12T06:06:42.363Z,100747.29
2018-09-12T06:07:48.613Z,100747.72
2018-09-12T06:08:54.849Z,100752.69
2018-09-12T06:10:01.119Z,100755.09
2018-09-12T06:11:07.391Z,100755.00
2018-09-12T06:12:13.644Z,100760.09
2018-09-12T06:13:19.930Z,100759.14
2018-09-12T06:14:26.171Z,100762.90
2018-09-12T06:15:32.392Z,100763.13
2018-09-12T06:16:38.690Z,100760.62
2018-09-12T06:17:44.910Z,100763.66
2018-09-12T06:18:50.955Z,100762.31
2018-09-12T06:19:56.888Z,100758.58
2018-09-12T06:21:03.164Z,100758.20
2018-09-12T06:22:09.400Z,100759.53
2018-09-12T06:23:15.742Z,100760.88
2018-09-12T06:24:22.059Z,100758.75
2018-09-12T06:25:28.308Z,100757.70
2018-09-12T06:26:34.603Z,100759.55
2018-09-12T06:27:40.882Z,100764.06
2018-09-12T06:28:47.146Z,100760.81
2018-09-12T06:29:53.375Z,100755.80
2018-09-12T06:30:59.621Z,100751.61
2018-09-12T06:32:05.979Z,100759.13
2018-09-12T06:33:12.266Z,100756.30
2018-09-12T06:34:18.526Z,100760.28
2018-09-12T06:35:24.758Z,100753.53
2018-09-12T06:36:31.016Z,100759.10
2018-09-12T06:37:37.235Z,100758.31
2018-09-12T06:38:43.539Z,100755.66
2018-09-12T06:39:49.958Z,100759.00
2018-09-12T06:40:56.268Z,100748.11
2018-09-12T06:42:02.562Z,100754.67
2018-09-12T06:43:09.035Z,100759.88
2018-09-12T06:44:15.386Z,100757.77
2018-09-12T06:45:21.664Z,100757.39
2018-09-12T06:46:27.929Z,100758.77
2018-09-12T06:47:34.224Z,100756.14
2018-09-12T06:48:40.487Z,100752.63
2018-09-12T06:49:46.485Z,100752.96
2018-09-12T06:50:52.483Z,100757.48
2018-09-12T06:51:58.743Z,100751.66
2018-09-12T06:53:04.999Z,100755.77
2018-09-12T06:54:11.301Z,100757.42
2018-09-12T06:55:17.583Z,100760.34
2018-09-12T06:56:23.628Z,100755.47
2018-09-12T06:57:29.862Z,100759.81
2018-09-12T06:58:35.854Z,100761.96
2018-09-12T06:59:42.090Z,100764.12
2018-09-12T07:00:48.467Z,100765.86
2018-09-12T07:01:54.790Z,100764.33
2018-09-12T07:03:01.055Z,100763.59
2018-09-12T07:04:07.344Z,100761.27
2018-09-12T07:05:13.572Z,100759.28
2018-09-12T07:06:19.455Z,100760.29
2018-09-12T07:07:25.731Z,100761.95
2018-09-12T07:08:32.012Z,100763.33
2018-09-12T07:09:38.844Z,100760.95
2018-09-12T07:10:45.265Z,100759.09
2018-09-12T07:11:51.557Z,100758.59
2018-09-12T07:12:57.859Z,100760.95
2018-09-12T07:14:04.173Z,100759.75
2018-09-12T07:15:10.099Z,100759.94
2018-09-12T07:16:16.377Z,100760.11
2018-09-12T07:17:22.596Z,100762.59
2018-09-12T07:18:28.856Z,100764.36
2018-09-12T07:19:35.128Z,100758.64
2018-09-12T07:20:41.381Z,100764.59
2018-09-12T07:21:47.614Z,100763.41
2018-09-12T07:22:53.961Z,100761.27
2018-09-12T07:24:00.326Z,100764.98
2018-09-12T07:25:05.845Z,100767.88
2018-09-12T07:26:12.104Z,100769.80
2018-09-12T07:27:18.353Z,100764.98
2018-09-12T07:28:24.604Z,100760.16
2018-09-12T07:29:30.818Z,100764.39
2018-09-12T07:30:37.131Z,100765.03
2018-09-12T07:31:43.252Z,100763.47
2018-09-12T07:32:49.469Z,100765.08
2018-09-12T07:33:55.704Z,100760.00
2018-09-12T07:35:01.978Z,100757.80
2018-09-12T07:36:08.200Z,100757.97
2018-09-12T07:37:14.405Z,100758.86
2018-09-12T07:38:20.757Z,100759.76
2018-09-12T07:39:27.005Z,100755.80
2018-09-12T07:40:33.305Z,100757.72
2018-09-12T07:41:39.338Z,100760.22
2018-09-12T07:42:45.744Z,100760.64
2018-09-12T07:43:51.737Z,100755.87
2018-09-12T07:44:57.945Z,100759.32
2018-09-12T07:46:04.196Z,100758.34
2018-09-12T07:47:10.424Z,100763.70
2018-09-12T07:48:16.650Z,100761.39
2018-09-12T07:49:22.885Z,100766.13
2018-09-12T07:50:28.880Z,100768.65
2018-09-12T07:51:35.128Z,100767.31
2018-09-12T07:52:41.334Z,100767.03
2018-09-12T07:53:47.543Z,100764.80
2018-09-12T07:54:53.797Z,100766.50
2018-09-12T07:55:59.823Z,100772.44
2018-09-12T07:57:05.939Z,100770.88
2018-09-12T07:58:12.201Z,100768.30
2018-09-12T07:59:18.435Z,100768.59
2018-09-12T08:00:24.697Z,100772.92
2018-09-12T08:01:30.860Z,100761.83
2018-09-12T08:02:37.080Z,100761.22
2018-09-12T08:03:43.300Z,100763.63
2018-09-12T08:04:49.522Z,100764.83
2018-09-12T08:05:55.805Z,100756.45
2018-09-12T08:07:02.057Z,100769.84
2018-09-12T08:08:08.282Z,100767.79
2018-09-12T08:09:14.548Z,100769.63
2018-09-12T08:10:24.815Z,100763.47
2018-09-12T08:11:31.072Z,100771.88
2018-09-12T08:12:37.282Z,100769.95
2018-09-12T08:13:43.529Z,100768.98
2018-09-12T08:14:49.783Z,100771.67
2018-09-12T08:15:56.009Z,100768.27
2018-09-12T08:17:02.067Z,100769.10
2018-09-12T08:18:08.459Z,100774.80
2018-09-12T08:19:14.733Z,100767.53
2018-09-12T08:20:20.950Z,100775.66
2018-09-12T08:21:27.222Z,100773.60
2018-09-12T08:22:33.188Z,100770.98
2018-09-12T08:23:39.419Z,100774.98
2018-09-12T08:24:45.381Z,100767.78
2018-09-12T08:25:51.624Z,100773.08
2018-09-12T08:26:57.541Z,100773.05
2018-09-12T08:28:03.762Z,100770.37
2018-09-12T08:29:10.019Z,100775.01
2018-09-12T08:30:15.594Z,100771.38
2018-09-12T08:31:21.886Z,100773.88
2018-09-12T08:32:28.109Z,100767.00
2018-09-12T08:33:34.321Z,100777.78
2018-09-12T08:34:40.581Z,100772.28
2018-09-12T08:35:46.800Z,100767.77
2018-09-12T08:36:53.077Z,100776.35
2018-09-12T08:37:59.288Z,100770.75
2018-09-12T08:39:04.836Z,100777.77
2018-09-12T08:40:10.837Z,100768.54
2018-09-12T08:41:17.047Z,100776.97
2018-09-12T08:42:23.346Z,100777.16
2018-09-12T08:43:29.795Z,100775.63
2018-09-12T08:44:36.014Z,100779.09
2018-09-12T08:45:42.281Z,100774.21
2018-09-12T08:46:48.182Z,100769.89
2018-09-12T08:47:54.679Z,100776.13
2018-09-12T08:49:00.596Z,100774.83
2018-09-12T08:50:06.220Z,100771.53
2018-09-12T08:51:12.448Z,100769.31
2018-09-12T08:52:18.709Z,100773.33
2018-09-12T08:53:24.952Z,100766.42
2018-09-12T08:54:31.221Z,100769.91
2018-09-12T08:55:37.493Z,100772.09
2018-09-12T08:56:43.814Z,100773.13
2018-09-12T08:57:50.236Z,100770.45
2018-09-12T08:58:56.504Z,100766.59
2018-09-12T09:00:02.628Z,100763.77
2018-09-12T09:01:09.062Z,100770.05
2018-09-12T09:02:15.317Z,100769.50
2018-09-12T09:03:21.551Z,100765.33
2018-09-12T09:04:27.476Z,100767.12
2018-09-12T09:05:44.516Z,100771.73
2018-09-12T09:06:50.779Z,100767.64
2018-09-12T09:07:57.008Z,100766.59
2018-09-12T09:09:03.223Z,100770.02
2018-09-12T09:10:09.490Z,100765.94
2018-09-12T09:11:15.728Z,100761.03
2018-09-12T09:12:22.725Z,100762.72
2018-09-12T09:13:28.971Z,100761.14
2018-09-12T09:14:35.210Z,100760.78
2018-09-12T09:15:41.432Z,100760.61
2018-09-12T09:16:47.667Z,100764.44
2018-09-12T09:17:53.961Z,100759.05
2018-09-12T09:19:00.428Z,100756.93
2018-09-12T09:20:06.884Z,100755.84
2018-09-12T09:21:13.124Z,100753.47
2018-09-12T09:22:19.393Z,100753.22
2018-09-12T09:23:25.611Z,100753.04
2018-09-12T09:24:31.845Z,100753.01
2018-09-12T09:25:37.492Z,100750.45
2018-09-12T09:26:43.737Z,100760.22
2018-09-12T09:27:49.989Z,100756.12
2018-09-12T09:28:56.206Z,100749.45
2018-09-12T09:30:02.451Z,100750.07
2018-09-12T09:31:08.664Z,100750.84
2018-09-12T09:32:14.919Z,100753.05
2018-09-12T09:33:21.170Z,100750.97
2018-09-12T09:34:27.119Z,100757.59
2018-09-12T09:35:33.541Z,100751.24
2018-09-12T09:36:39.566Z,100747.70
2018-09-12T09:37:45.520Z,100744.21
2018-09-12T09:38:51.732Z,100743.69
2018-09-12T09:39:57.664Z,100751.31
2018-09-12T09:41:03.646Z,100751.11
2018-09-12T09:42:09.632Z,100754.08
2018-09-12T09:43:15.559Z,100757.31
2018-09-12T09:44:21.579Z,100752.30
2018-09-12T09:45:27.822Z,100752.73
2018-09-12T09:46:34.067Z,100758.87
2018-09-12T09:47:40.035Z,100760.31
2018-09-12T09:48:46.251Z,100749.12
2018-09-12T09:49:51.962Z,100751.05
2018-09-12T09:50:57.906Z,100751.50
2018-09-12T09:52:03.847Z,100745.17
2018-09-12T09:53:10.174Z,100740.63
2018-09-12T09:54:16.111Z,100751.92
2018-09-12T09:55:22.364Z,100744.61
2018-09-12T09:56:28.617Z,100746.13
2018-09-12T09:57:34.323Z,100736.70
2018-09-12T09:58:40.000Z,100737.17
2018-09-12T09:59:45.715Z,100742.81
2018-09-12T10:00:51.702Z,100741.48
2018-09-12T10:03:29.241Z,100737.00
2018-09-12T10:04:34.966Z,100733.55
2018-09-12T10:05:40.956Z,100737.52
2018-09-12T10:06:46.660Z,100732.56
2018-09-12T10:07:52.405Z,100737.73
2018-09-12T10:08:58.358Z,100735.25
2018-09-12T10:10:03.703Z,100736.28
2018-09-12T10:11:09.671Z,100735.45
2018-09-12T10:12:15.635Z,100731.84
2018-09-12T10:13:21.610Z,100727.47
2018-09-12T10:14:27.557Z,100733.61
2018-09-12T10:15:33.533Z,100731.64
2018-09-12T10:16:39.480Z,100733.27
2018-09-12T10:17:45.431Z,100732.78
2018-09-12T10:18:51.364Z,100726.80
2018-09-12T10:19:57.306Z,100727.47
2018-09-12T10:21:03.233Z,100723.25
2018-09-12T10:22:09.188Z,100723.92
2018-09-12T10:23:15.184Z,100726.55
2018-09-12T10:24:20.919Z,100722.26
2018-09-12T10:25:26.656Z,100718.22
2018-09-12T10:26:32.365Z,100730.27
2018-09-12T10:27:38.566Z,100708.84
2018-09-12T10:28:44.193Z,100714.68
2018-09-12T10:29:50.130Z,100716.85
2018-09-12T10:30:56.365Z,100713.83
2018-09-12T10:32:02.312Z,100720.05
2018-09-12T10:33:08.293Z,100708.36
2018-09-12T10:34:14.279Z,100709.70
2018-09-12T10:35:20.201Z,100713.73
2018-09-12T10:36:25.853Z,100715.42
2018-09-12T10:37:31.767Z,100705.50
2018-09-12T10:38:37.760Z,100705.55
2018-09-12T10:39:43.699Z,100702.60
2018-09-12T10:40:49.653Z,100694.94
2018-09-12T10:41:55.599Z,100706.41
2018-09-12T10:43:01.529Z,100702.87
2018-09-12T10:44:07.256Z,100712.81
2018-09-12T10:45:13.225Z,100705.22
2018-09-12T10:46:19.194Z,100700.41
2018-09-12T10:47:25.116Z,100702.67
2018-09-12T10:48:31.092Z,100703.77
2018-09-12T10:49:37.039Z,100713.05
2018-09-12T10:50:42.991Z,100701.25
2018-09-12T10:51:48.923Z,100702.52
2018-09-12T10:52:54.957Z,100705.88
2018-09-12T10:54:00.931Z,100694.50
2018-09-12T10:55:06.518Z,100703.18
2018-09-12T10:56:12.481Z,100701.17
2018-09-12T10:57:18.426Z,100690.61
2018-09-12T10:58:24.392Z,100697.27
2018-09-12T10:59:30.322Z,100702.12
2018-09-12T11:00:36.282Z,100698.92
2018-09-12T11:01:42.234Z,100697.56
2018-09-12T11:02:48.164Z,100692.89
2018-09-12T11:03:53.761Z,100697.48
2018-09-12T11:04:59.689Z,100686.44
2018-09-12T11:06:05.635Z,100690.53
2018-09-12T11:07:11.586Z,100702.17
2018-09-12T11:08:17.555Z,100696.86
2018-09-12T11:09:23.536Z,100698.20
2018-09-12T11:10:29.474Z,100697.50
2018-09-12T11:11:35.428Z,100689.05
2018-09-12T11:12:41.364Z,100687.36
2018-09-12T11:13:47.086Z,100689.76
2018-09-12T11:14:53.004Z,100688.27
2018-09-12T11:15:58.944Z,100686.84
2018-09-12T11:17:04.565Z,100682.62
2018-09-12T11:18:10.507Z,100689.09
2018-09-12T11:19:16.455Z,100689.40
2018-09-12T11:20:22.415Z,100679.55
2018-09-12T11:21:28.340Z,100680.50
2018-09-12T11:22:34.308Z,100671.04
2018-09-12T11:23:40.253Z,100667.04
2018-09-12T11:24:46.224Z,100665.57
2018-09-12T11:25:52.184Z,100656.86
2018-09-12T11:26:58.106Z,100659.66
2018-09-12T11:28:03.695Z,100666.34
2018-09-12T11:29:09.696Z,100668.08
2018-09-12T11:30:15.624Z,100665.27
2018-09-12T11:31:21.565Z,100671.56
2018-09-12T11:32:27.524Z,100664.39
2018-09-12T11:33:33.505Z,100672.52
2018-09-12T11:34:39.471Z,100671.39
2018-09-12T11:35:45.396Z,100678.64
2018-09-12T11:36:51.330Z,100670.11
2018-09-12T11:37:57.260Z,100663.27
2018-09-12T11:39:03.010Z,100653.64
2018-09-12T11:40:10.429Z,100657.33
2018-09-12T11:41:16.839Z,100652.58
2018-09-12T11:42:22.777Z,100656.77
2018-09-12T11:43:28.707Z,100655.41
2018-09-12T11:44:34.663Z,100656.23
2018-09-12T11:45:40.616Z,100657.95
2018-09-12T11:46:46.544Z,100659.29
2018-09-12T11:47:52.506Z,100654.59
2018-09-12T11:48:58.529Z,100656.88
2018-09-12T11:50:04.354Z,100656.88
2018-09-12T11:51:09.998Z,100656.52
2018-09-12T11:52:15.938Z,100654.43
2018-09-12T11:53:21.907Z,100645.52
2018-09-12T11:54:27.878Z,100639.31
2018-09-12T11:55:33.974Z,100646.66
2018-09-12T11:56:40.065Z,100644.20
2018-09-12T11:57:46.029Z,100655.05
2018-09-12T11:58:51.976Z,100649.33
2018-09-12T11:59:57.965Z,100652.08
2018-09-12T12:01:03.924Z,100648.24
2018-09-12T12:02:09.924Z,100649.63
2018-09-12T12:03:16.147Z,100647.09
2018-09-12T12:04:22.132Z,100641.81
2018-09-12T12:05:27.855Z,100633.11
2018-09-12T12:06:33.786Z,100642.39
2018-09-12T12:07:39.713Z,100642.66
2018-09-12T12:08:45.627Z,100644.09
2018-09-12T12:09:51.372Z,100635.26
2018-09-12T12:10:57.363Z,100632.31
2018-09-12T12:12:03.296Z,100634.98
2018-09-12T12:13:09.243Z,100623.93
2018-09-12T12:14:15.178Z,100626.69
2018-09-12T12:15:21.424Z,100625.14
2018-09-12T12:16:27.566Z,100630.34
2018-09-12T12:17:33.540Z,100622.31
2018-09-12T12:18:39.568Z,100623.50
2018-09-12T12:19:45.561Z,100623.21
2018-09-12T12:20:51.564Z,100625.48
2018-09-12T12:21:57.561Z,100620.33
2018-09-12T12:23:03.568Z,100620.53
2018-09-12T12:24:09.729Z,100618.20
2018-09-12T12:25:15.696Z,100620.16
2018-09-12T12:26:21.683Z,100622.52
2018-09-12T12:27:27.621Z,100620.71
2018-09-12T12:28:33.593Z,100621.34
2018-09-12T12:29:39.239Z,100616.72
2018-09-12T12:30:45.477Z,100615.12
2018-09-12T12:31:51.466Z,100610.61
2018-09-12T12:32:57.441Z,100610.88
2018-09-12T12:34:03.459Z,100610.63
2018-09-12T12:35:09.460Z,100617.73
2018-09-12T12:36:15.392Z,100612.22